SWA382 KMSP-KDEN
Flight info
| Callsign | SWA382 |
|---|---|
| Flight time | 1h 55m |
| Altitude | 30000 |
| Route | SCHEP1 RXANN TEYOU LLUKY PORDR AALLE4 |
| Aircraft | B738/M-SDE2E3FGHIRWXY/LB1 |
Departure
| Time | 2026-05-05 20:35 |
|---|---|
| Airport | Minneapolis–Saint Paul International Airport / Wold–Chamberlain Field (KMSP) |
Arrival
| Time | 2026-05-05 22:30 |
|---|---|
| Airport | Denver International Airport (KDEN) |
| Time | Latitude | Longitude | Altitude | Speed | Heading |
|---|---|---|---|---|---|
| 2026-05-05 20:11 | 44.87497 | -93.22845 | 824 ft | 0 kts | 134° |
| 2026-05-05 20:24 | 44.87500 | -93.22849 | 824 ft | 5 kts | 134° |
| 2026-05-05 20:24 | 44.87526 | -93.22890 | 822 ft | 6 kts | 129° |
| 2026-05-05 20:24 | 44.87544 | -93.22927 | 820 ft | 3 kts | 111° |
| 2026-05-05 20:24 | 44.87547 | -93.22951 | 823 ft | 2 kts | 79° |
| 2026-05-05 20:25 | 44.87542 | -93.22971 | 821 ft | 2 kts | 56° |
| 2026-05-05 20:25 | 44.87535 | -93.22985 | 820 ft | 2 kts | 48° |
| 2026-05-05 20:25 | 44.87527 | -93.22997 | 822 ft | 2 kts | 46° |
| 2026-05-05 20:25 | 44.87525 | -93.23000 | 821 ft | 0 kts | 46° |
| 2026-05-05 20:27 | 44.87525 | -93.22999 | 823 ft | 1 kts | 46° |
| 2026-05-05 20:27 | 44.87544 | -93.22972 | 823 ft | 8 kts | 45° |
| 2026-05-05 20:27 | 44.87599 | -93.22896 | 824 ft | 13 kts | 44° |
| 2026-05-05 20:28 | 44.87669 | -93.22800 | 824 ft | 15 kts | 44° |
| 2026-05-05 20:28 | 44.87740 | -93.22700 | 824 ft | 14 kts | 45° |
| 2026-05-05 20:28 | 44.87808 | -93.22603 | 821 ft | 14 kts | 45° |
| 2026-05-05 20:28 | 44.87873 | -93.22511 | 824 ft | 13 kts | 45° |
| 2026-05-05 20:29 | 44.87935 | -93.22421 | 821 ft | 13 kts | 46° |
| 2026-05-05 20:29 | 44.87996 | -93.22333 | 822 ft | 12 kts | 46° |
| 2026-05-05 20:29 | 44.88054 | -93.22246 | 822 ft | 12 kts | 46° |
| 2026-05-05 20:29 | 44.88094 | -93.22150 | 825 ft | 12 kts | 91° |
| 2026-05-05 20:30 | 44.88058 | -93.22046 | 822 ft | 12 kts | 121° |
| 2026-05-05 20:30 | 44.88010 | -93.21936 | 824 ft | 14 kts | 121° |
| 2026-05-05 20:30 | 44.87957 | -93.21815 | 824 ft | 15 kts | 121° |
| 2026-05-05 20:30 | 44.87901 | -93.21687 | 823 ft | 16 kts | 121° |
| 2026-05-05 20:31 | 44.87842 | -93.21549 | 823 ft | 16 kts | 121° |
| 2026-05-05 20:31 | 44.87781 | -93.21409 | 824 ft | 17 kts | 122° |
| 2026-05-05 20:31 | 44.87717 | -93.21262 | 824 ft | 17 kts | 121° |
| 2026-05-05 20:31 | 44.87656 | -93.21119 | 821 ft | 17 kts | 121° |
| 2026-05-05 20:32 | 44.87593 | -93.20973 | 822 ft | 18 kts | 121° |
| 2026-05-05 20:32 | 44.87529 | -93.20826 | 823 ft | 17 kts | 122° |
| 2026-05-05 20:32 | 44.87455 | -93.20699 | 824 ft | 17 kts | 143° |
| 2026-05-05 20:32 | 44.87369 | -93.20599 | 822 ft | 16 kts | 129° |
| 2026-05-05 20:33 | 44.87310 | -93.20469 | 824 ft | 15 kts | 122° |
| 2026-05-05 20:33 | 44.87255 | -93.20343 | 821 ft | 15 kts | 122° |
| 2026-05-05 20:33 | 44.87244 | -93.20238 | 823 ft | 8 kts | 60° |
| 2026-05-05 20:33 | 44.87289 | -93.20192 | 825 ft | 8 kts | 31° |
| 2026-05-05 20:34 | 44.87348 | -93.20166 | 826 ft | 12 kts | 352° |
| 2026-05-05 20:34 | 44.87417 | -93.20268 | 824 ft | 19 kts | 301° |
| 2026-05-05 20:34 | 44.87612 | -93.20720 | 824 ft | 94 kts | 301° |
| 2026-05-05 20:34 | 44.88068 | -93.21801 | 895 ft | 156 kts | 299° |
| 2026-05-05 20:35 | 44.88674 | -93.23190 | 1685 ft | 169 kts | 301° |
| 2026-05-05 20:35 | 44.89228 | -93.24631 | 2866 ft | 169 kts | 285° |
| 2026-05-05 20:35 | 44.89257 | -93.26354 | 3597 ft | 186 kts | 259° |
| 2026-05-05 20:35 | 44.88633 | -93.28070 | 3957 ft | 212 kts | 237° |
| 2026-05-05 20:36 | 44.87659 | -93.29746 | 4306 ft | 236 kts | 233° |
| 2026-05-05 20:36 | 44.86549 | -93.31594 | 4876 ft | 249 kts | 233° |
| 2026-05-05 20:36 | 44.85434 | -93.33482 | 5820 ft | 252 kts | 234° |
| 2026-05-05 20:36 | 44.84323 | -93.35415 | 6675 ft | 255 kts | 235° |
| 2026-05-05 20:37 | 44.83217 | -93.37383 | 7561 ft | 257 kts | 235° |
| 2026-05-05 20:37 | 44.82486 | -93.38702 | 8103 ft | 260 kts | 235° |
| 2026-05-05 20:37 | 44.80997 | -93.41419 | 9288 ft | 264 kts | 236° |
| 2026-05-05 20:37 | 44.79873 | -93.43490 | 10105 ft | 267 kts | 236° |
| 2026-05-05 20:38 | 44.78718 | -93.45632 | 10553 ft | 286 kts | 236° |
| 2026-05-05 20:38 | 44.77468 | -93.47956 | 10761 ft | 309 kts | 236° |
| 2026-05-05 20:38 | 44.76118 | -93.50468 | 10944 ft | 332 kts | 235° |
| 2026-05-05 20:38 | 44.74677 | -93.53144 | 11107 ft | 354 kts | 235° |
| 2026-05-05 20:39 | 44.73174 | -93.55932 | 11459 ft | 367 kts | 236° |
| 2026-05-05 20:39 | 44.71620 | -93.58813 | 12112 ft | 372 kts | 236° |
| 2026-05-05 20:39 | 44.70050 | -93.61722 | 12852 ft | 375 kts | 236° |
| 2026-05-05 20:39 | 44.68484 | -93.64690 | 13532 ft | 379 kts | 237° |
| 2026-05-05 20:40 | 44.66928 | -93.67697 | 14169 ft | 383 kts | 237° |
| 2026-05-05 20:40 | 44.65360 | -93.70734 | 14835 ft | 384 kts | 237° |
| 2026-05-05 20:40 | 44.63784 | -93.73778 | 15496 ft | 386 kts | 237° |
| 2026-05-05 20:40 | 44.62197 | -93.76835 | 16179 ft | 388 kts | 237° |
| 2026-05-05 20:41 | 44.60598 | -93.79907 | 16814 ft | 390 kts | 237° |
| 2026-05-05 20:41 | 44.58985 | -93.82997 | 17431 ft | 393 kts | 237° |
| 2026-05-05 20:41 | 44.57370 | -93.86088 | 18062 ft | 394 kts | 237° |
| 2026-05-05 20:41 | 44.55745 | -93.89195 | 18636 ft | 395 kts | 237° |
| 2026-05-05 20:42 | 44.54123 | -93.92292 | 19347 ft | 391 kts | 238° |
| 2026-05-05 20:42 | 44.52538 | -93.95313 | 20072 ft | 387 kts | 238° |
| 2026-05-05 20:42 | 44.50948 | -93.98344 | 20726 ft | 385 kts | 239° |
| 2026-05-05 20:42 | 44.49362 | -94.01367 | 21322 ft | 384 kts | 239° |
| 2026-05-05 20:43 | 44.47782 | -94.04376 | 21909 ft | 383 kts | 239° |
| 2026-05-05 20:43 | 44.46200 | -94.07388 | 22484 ft | 382 kts | 239° |
| 2026-05-05 20:43 | 44.44626 | -94.10378 | 23039 ft | 381 kts | 240° |
| 2026-05-05 20:43 | 44.43049 | -94.13370 | 23551 ft | 381 kts | 240° |
| 2026-05-05 20:44 | 44.41477 | -94.16349 | 23939 ft | 381 kts | 240° |
| 2026-05-05 20:44 | 44.39895 | -94.19341 | 24269 ft | 383 kts | 240° |
| 2026-05-05 20:44 | 44.38329 | -94.22300 | 24607 ft | 384 kts | 240° |
| 2026-05-05 20:44 | 44.36734 | -94.25309 | 24941 ft | 385 kts | 239° |
| 2026-05-05 20:45 | 44.33534 | -94.31340 | 25584 ft | 387 kts | 239° |
| 2026-05-05 20:45 | 44.31928 | -94.34362 | 25971 ft | 386 kts | 239° |
| 2026-05-05 20:45 | 44.30332 | -94.37359 | 26486 ft | 382 kts | 239° |
| 2026-05-05 20:46 | 44.28757 | -94.40318 | 27064 ft | 377 kts | 239° |
| 2026-05-05 20:46 | 44.27198 | -94.43242 | 27610 ft | 373 kts | 239° |
| 2026-05-05 20:46 | 44.25649 | -94.46146 | 28106 ft | 371 kts | 239° |
| 2026-05-05 20:46 | 44.24112 | -94.49024 | 28562 ft | 369 kts | 239° |
| 2026-05-05 20:47 | 44.22581 | -94.51888 | 29016 ft | 367 kts | 239° |
| 2026-05-05 20:47 | 44.21053 | -94.54744 | 29376 ft | 367 kts | 239° |
| 2026-05-05 20:47 | 44.19525 | -94.57600 | 29706 ft | 368 kts | 239° |
| 2026-05-05 20:47 | 44.18012 | -94.60425 | 29974 ft | 368 kts | 239° |
| 2026-05-05 20:48 | 44.14931 | -94.66169 | 29939 ft | 370 kts | 239° |
| 2026-05-05 20:48 | 44.11854 | -94.71892 | 29954 ft | 368 kts | 239° |
| 2026-05-05 20:49 | 44.08782 | -94.77596 | 29953 ft | 368 kts | 239° |
| 2026-05-05 20:49 | 44.05706 | -94.83298 | 29956 ft | 368 kts | 238° |
| 2026-05-05 20:50 | 44.03148 | -94.88033 | 29964 ft | 369 kts | 238° |
| 2026-05-05 20:50 | 43.99538 | -94.94701 | 29968 ft | 369 kts | 239° |
| 2026-05-05 20:51 | 43.96535 | -95.00431 | 29968 ft | 369 kts | 239° |
| 2026-05-05 20:51 | 43.93534 | -95.06231 | 29959 ft | 370 kts | 239° |
| 2026-05-05 20:52 | 43.90527 | -95.12020 | 29965 ft | 370 kts | 239° |
| 2026-05-05 20:52 | 43.87507 | -95.17812 | 29962 ft | 371 kts | 239° |
| 2026-05-05 20:53 | 43.84990 | -95.22625 | 29971 ft | 371 kts | 239° |
| 2026-05-05 20:53 | 43.81458 | -95.29362 | 29970 ft | 372 kts | 239° |
| 2026-05-05 20:54 | 43.78908 | -95.34217 | 29975 ft | 372 kts | 239° |
| 2026-05-05 20:54 | 43.75863 | -95.40005 | 29970 ft | 372 kts | 239° |
| 2026-05-05 20:55 | 43.72832 | -95.45753 | 29972 ft | 372 kts | 239° |
| 2026-05-05 20:55 | 43.69776 | -95.51537 | 29968 ft | 372 kts | 238° |
| 2026-05-05 20:56 | 43.66711 | -95.57328 | 29967 ft | 373 kts | 238° |
| 2026-05-05 20:56 | 43.63644 | -95.63111 | 29968 ft | 373 kts | 238° |
| 2026-05-05 20:57 | 43.60578 | -95.68881 | 29975 ft | 373 kts | 238° |
| 2026-05-05 20:57 | 43.57502 | -95.74659 | 29967 ft | 373 kts | 238° |
| 2026-05-05 20:58 | 43.54444 | -95.80391 | 29982 ft | 374 kts | 238° |
| 2026-05-05 20:58 | 43.51359 | -95.86162 | 29978 ft | 374 kts | 238° |
| 2026-05-05 20:59 | 43.48271 | -95.91928 | 29998 ft | 374 kts | 238° |
| 2026-05-05 20:59 | 43.45177 | -95.97695 | 29987 ft | 374 kts | 238° |
| 2026-05-05 21:00 | 43.42077 | -96.03460 | 29981 ft | 374 kts | 238° |
| 2026-05-05 21:00 | 43.38977 | -96.09216 | 29981 ft | 375 kts | 238° |
| 2026-05-05 21:01 | 43.35883 | -96.14950 | 29992 ft | 375 kts | 238° |
| 2026-05-05 21:01 | 43.32768 | -96.20713 | 29990 ft | 375 kts | 237° |
| 2026-05-05 21:02 | 43.29708 | -96.26465 | 29989 ft | 373 kts | 240° |
| 2026-05-05 21:02 | 43.27364 | -96.32773 | 29998 ft | 371 kts | 248° |
| 2026-05-05 21:03 | 43.25273 | -96.39245 | 29995 ft | 371 kts | 248° |
| 2026-05-05 21:03 | 43.23163 | -96.45725 | 29995 ft | 372 kts | 247° |
| 2026-05-05 21:04 | 43.21044 | -96.52200 | 29996 ft | 373 kts | 247° |
| 2026-05-05 21:04 | 43.18914 | -96.58688 | 30001 ft | 373 kts | 247° |
| 2026-05-05 21:05 | 43.16777 | -96.65175 | 30005 ft | 374 kts | 247° |
| 2026-05-05 21:05 | 43.14632 | -96.71672 | 30010 ft | 374 kts | 247° |
| 2026-05-05 21:06 | 43.12495 | -96.78130 | 30015 ft | 375 kts | 247° |
| 2026-05-05 21:06 | 43.10338 | -96.84633 | 30020 ft | 375 kts | 247° |
| 2026-05-05 21:07 | 43.08169 | -96.91155 | 30023 ft | 376 kts | 247° |
| 2026-05-05 21:07 | 43.05999 | -96.97666 | 30025 ft | 376 kts | 247° |
| 2026-05-05 21:08 | 43.03836 | -97.04140 | 30030 ft | 377 kts | 246° |
| 2026-05-05 21:08 | 43.01656 | -97.10649 | 30029 ft | 377 kts | 246° |
| 2026-05-05 21:09 | 42.99468 | -97.17167 | 30023 ft | 377 kts | 246° |
| 2026-05-05 21:09 | 42.97272 | -97.23691 | 30022 ft | 378 kts | 246° |
| 2026-05-05 21:10 | 42.95070 | -97.30219 | 30018 ft | 378 kts | 246° |
| 2026-05-05 21:10 | 42.92863 | -97.36746 | 30016 ft | 379 kts | 246° |
| 2026-05-05 21:11 | 42.90663 | -97.43235 | 30021 ft | 379 kts | 246° |
| 2026-05-05 21:11 | 42.88441 | -97.49776 | 30021 ft | 380 kts | 246° |
| 2026-05-05 21:12 | 42.86214 | -97.56315 | 30026 ft | 380 kts | 246° |
| 2026-05-05 21:12 | 42.83979 | -97.62862 | 30030 ft | 380 kts | 246° |
| 2026-05-05 21:13 | 42.81745 | -97.69387 | 30037 ft | 378 kts | 246° |
| 2026-05-05 21:13 | 42.79542 | -97.75810 | 30042 ft | 372 kts | 246° |
| 2026-05-05 21:14 | 42.77368 | -97.82131 | 30053 ft | 366 kts | 246° |
| 2026-05-05 21:14 | 42.75228 | -97.88340 | 30051 ft | 360 kts | 246° |
| 2026-05-05 21:15 | 42.73109 | -97.94478 | 30050 ft | 362 kts | 246° |
| 2026-05-05 21:15 | 42.70962 | -98.00681 | 30056 ft | 363 kts | 246° |
| 2026-05-05 21:16 | 42.68799 | -98.06919 | 30056 ft | 368 kts | 246° |
| 2026-05-05 21:16 | 42.66573 | -98.13323 | 30056 ft | 378 kts | 246° |
| 2026-05-05 21:17 | 42.64321 | -98.19783 | 30048 ft | 377 kts | 246° |
| 2026-05-05 21:17 | 42.62073 | -98.26215 | 30050 ft | 376 kts | 246° |
| 2026-05-05 21:18 | 42.59826 | -98.32633 | 30046 ft | 376 kts | 246° |
| 2026-05-05 21:18 | 42.57594 | -98.38993 | 30039 ft | 376 kts | 245° |
| 2026-05-05 21:19 | 42.55344 | -98.45391 | 30039 ft | 376 kts | 245° |
| 2026-05-05 21:19 | 42.53090 | -98.51787 | 30035 ft | 376 kts | 245° |
| 2026-05-05 21:20 | 42.50826 | -98.58199 | 30039 ft | 377 kts | 245° |
| 2026-05-05 21:20 | 42.48500 | -98.64581 | 30033 ft | 379 kts | 242° |
| 2026-05-05 21:21 | 42.45750 | -98.70641 | 30031 ft | 380 kts | 240° |
| 2026-05-05 21:21 | 42.42939 | -98.76723 | 30038 ft | 381 kts | 240° |
| 2026-05-05 21:22 | 42.40122 | -98.82832 | 30031 ft | 382 kts | 240° |
| 2026-05-05 21:22 | 42.37304 | -98.88954 | 30035 ft | 383 kts | 240° |
| 2026-05-05 21:23 | 42.34482 | -98.95082 | 30030 ft | 384 kts | 240° |
| 2026-05-05 21:23 | 42.31672 | -99.01174 | 30027 ft | 385 kts | 240° |
| 2026-05-05 21:24 | 42.28832 | -99.07320 | 30026 ft | 385 kts | 240° |
| 2026-05-05 21:24 | 42.25991 | -99.13454 | 30022 ft | 385 kts | 240° |
| 2026-05-05 21:25 | 42.23148 | -99.19582 | 30021 ft | 385 kts | 240° |
| 2026-05-05 21:25 | 42.20320 | -99.25662 | 30022 ft | 385 kts | 240° |
| 2026-05-05 21:26 | 42.17468 | -99.31783 | 30010 ft | 385 kts | 240° |
| 2026-05-05 21:26 | 42.14612 | -99.37900 | 30015 ft | 385 kts | 240° |
| 2026-05-05 21:27 | 42.11760 | -99.43997 | 30005 ft | 385 kts | 240° |
| 2026-05-05 21:27 | 42.08898 | -99.50101 | 30012 ft | 385 kts | 240° |
| 2026-05-05 21:28 | 42.06030 | -99.56206 | 30010 ft | 386 kts | 239° |
| 2026-05-05 21:28 | 42.03173 | -99.62276 | 30009 ft | 387 kts | 239° |
| 2026-05-05 21:29 | 42.00287 | -99.68396 | 30001 ft | 388 kts | 239° |
| 2026-05-05 21:29 | 41.97385 | -99.74535 | 30006 ft | 389 kts | 239° |
| 2026-05-05 21:30 | 41.94476 | -99.80677 | 30003 ft | 390 kts | 239° |
| 2026-05-05 21:30 | 41.91562 | -99.86818 | 30000 ft | 390 kts | 239° |
| 2026-05-05 21:31 | 41.88638 | -99.92968 | 30007 ft | 391 kts | 239° |
| 2026-05-05 21:31 | 41.85720 | -99.99091 | 30002 ft | 391 kts | 239° |
| 2026-05-05 21:32 | 41.82780 | -100.05248 | 30003 ft | 392 kts | 239° |
| 2026-05-05 21:32 | 41.79828 | -100.11420 | 30003 ft | 393 kts | 239° |
| 2026-05-05 21:33 | 41.76872 | -100.17585 | 30009 ft | 394 kts | 239° |
| 2026-05-05 21:33 | 41.73923 | -100.23724 | 30008 ft | 395 kts | 239° |
| 2026-05-05 21:34 | 41.70944 | -100.29913 | 30013 ft | 395 kts | 239° |
| 2026-05-05 21:34 | 41.67959 | -100.36101 | 30014 ft | 396 kts | 239° |
| 2026-05-05 21:35 | 41.64970 | -100.42287 | 30009 ft | 396 kts | 239° |
| 2026-05-05 21:35 | 41.61972 | -100.48475 | 30014 ft | 397 kts | 239° |
| 2026-05-05 21:36 | 41.58965 | -100.54672 | 30012 ft | 397 kts | 239° |
| 2026-05-05 21:36 | 41.57276 | -100.57600 | 29997 ft | 402 kts | 226° |
| 2026-05-05 21:36 | 41.54944 | -100.59739 | 30010 ft | 413 kts | 210° |
| 2026-05-05 21:37 | 41.52146 | -100.60824 | 30020 ft | 429 kts | 193° |
| 2026-05-05 21:37 | 41.49117 | -100.60729 | 30023 ft | 447 kts | 177° |
| 2026-05-05 21:37 | 41.46111 | -100.59418 | 30014 ft | 466 kts | 160° |
| 2026-05-05 21:37 | 41.43388 | -100.56950 | 30011 ft | 484 kts | 144° |
| 2026-05-05 21:38 | 41.41204 | -100.53513 | 30013 ft | 499 kts | 127° |
| 2026-05-05 21:38 | 41.39710 | -100.49284 | 30016 ft | 511 kts | 111° |
| 2026-05-05 21:38 | 41.39063 | -100.44587 | 30015 ft | 520 kts | 95° |
| 2026-05-05 21:38 | 41.39327 | -100.39771 | 30015 ft | 524 kts | 78° |
| 2026-05-05 21:39 | 41.40492 | -100.35176 | 30006 ft | 524 kts | 62° |
| 2026-05-05 21:39 | 41.42473 | -100.31136 | 30021 ft | 520 kts | 45° |
| 2026-05-05 21:39 | 41.45119 | -100.27928 | 30016 ft | 511 kts | 29° |
| 2026-05-05 21:39 | 41.48230 | -100.25774 | 30022 ft | 499 kts | 12° |
| 2026-05-05 21:40 | 41.51578 | -100.24971 | 30017 ft | 479 kts | 352° |
| 2026-05-05 21:40 | 41.53739 | -100.25270 | 30012 ft | 465 kts | 338° |
| 2026-05-05 21:40 | 41.57442 | -100.27667 | 30019 ft | 435 kts | 311° |
| 2026-05-05 21:40 | 41.59310 | -100.30702 | 30011 ft | 416 kts | 291° |
| 2026-05-05 21:41 | 41.60240 | -100.34292 | 30033 ft | 405 kts | 277° |
| 2026-05-05 21:41 | 41.60544 | -100.36750 | 30011 ft | 403 kts | 273° |
| 2026-05-05 21:41 | 41.60704 | -100.44203 | 30005 ft | 401 kts | 264° |
| 2026-05-05 21:42 | 41.59654 | -100.51477 | 30007 ft | 398 kts | 250° |
| 2026-05-05 21:42 | 41.57244 | -100.58134 | 30011 ft | 399 kts | 241° |
| 2026-05-05 21:43 | 41.54284 | -100.64426 | 30007 ft | 400 kts | 239° |
| 2026-05-05 21:43 | 41.51242 | -100.70583 | 30013 ft | 400 kts | 239° |
| 2026-05-05 21:44 | 41.48186 | -100.76789 | 30016 ft | 400 kts | 239° |
| 2026-05-05 21:44 | 41.45139 | -100.83002 | 30031 ft | 400 kts | 239° |
| 2026-05-05 21:45 | 41.42086 | -100.89227 | 30023 ft | 401 kts | 239° |
| 2026-05-05 21:45 | 41.39025 | -100.95454 | 30030 ft | 402 kts | 239° |
| 2026-05-05 21:46 | 41.36174 | -101.01807 | 30022 ft | 401 kts | 248° |
| 2026-05-05 21:46 | 41.34019 | -101.08658 | 30032 ft | 401 kts | 248° |
| 2026-05-05 21:47 | 41.31840 | -101.15504 | 30024 ft | 402 kts | 248° |
| 2026-05-05 21:47 | 41.29640 | -101.22353 | 30033 ft | 402 kts | 248° |
| 2026-05-05 21:48 | 41.27432 | -101.29199 | 30034 ft | 403 kts | 248° |
| 2026-05-05 21:48 | 41.25235 | -101.36000 | 30033 ft | 403 kts | 248° |
| 2026-05-05 21:49 | 41.23018 | -101.42846 | 30027 ft | 402 kts | 248° |
| 2026-05-05 21:49 | 41.20812 | -101.49689 | 30033 ft | 402 kts | 248° |
| 2026-05-05 21:50 | 41.18621 | -101.56520 | 30026 ft | 402 kts | 248° |
| 2026-05-05 21:50 | 41.16427 | -101.63346 | 30020 ft | 402 kts | 248° |
| 2026-05-05 21:51 | 41.14227 | -101.70169 | 30020 ft | 402 kts | 248° |
| 2026-05-05 21:51 | 41.12024 | -101.76982 | 30017 ft | 401 kts | 248° |
| 2026-05-05 21:52 | 41.08732 | -101.87130 | 30017 ft | 401 kts | 248° |
| 2026-05-05 21:53 | 41.06525 | -101.93913 | 30019 ft | 400 kts | 248° |
| 2026-05-05 21:53 | 41.04313 | -102.00694 | 30030 ft | 400 kts | 248° |
| 2026-05-05 21:54 | 41.02098 | -102.07467 | 30037 ft | 401 kts | 248° |
| 2026-05-05 21:54 | 40.99872 | -102.14262 | 30029 ft | 403 kts | 248° |
| 2026-05-05 21:55 | 40.97638 | -102.21063 | 30025 ft | 403 kts | 248° |
| 2026-05-05 21:55 | 40.95410 | -102.27822 | 30020 ft | 403 kts | 248° |
| 2026-05-05 21:56 | 40.93161 | -102.34630 | 30023 ft | 405 kts | 248° |
| 2026-05-05 21:56 | 40.90895 | -102.41478 | 30004 ft | 405 kts | 248° |
| 2026-05-05 21:57 | 40.88634 | -102.48294 | 30014 ft | 405 kts | 248° |
| 2026-05-05 21:57 | 40.86366 | -102.55115 | 30023 ft | 405 kts | 248° |
| 2026-05-05 21:58 | 40.84095 | -102.61930 | 30004 ft | 406 kts | 247° |
| 2026-05-05 21:58 | 40.81818 | -102.68746 | 30015 ft | 406 kts | 247° |
| 2026-05-05 21:59 | 40.79549 | -102.75522 | 30009 ft | 406 kts | 247° |
| 2026-05-05 21:59 | 40.77260 | -102.82342 | 30008 ft | 407 kts | 247° |
| 2026-05-05 22:00 | 40.74953 | -102.89198 | 29603 ft | 411 kts | 247° |
| 2026-05-05 22:00 | 40.73791 | -102.92639 | 29331 ft | 411 kts | 247° |
| 2026-05-05 22:00 | 40.72623 | -102.96094 | 29055 ft | 412 kts | 247° |
| 2026-05-05 22:00 | 40.71486 | -102.99455 | 28795 ft | 413 kts | 247° |
| 2026-05-05 22:01 | 40.70308 | -103.02932 | 28519 ft | 415 kts | 247° |
| 2026-05-05 22:01 | 40.69132 | -103.06402 | 28254 ft | 416 kts | 247° |
| 2026-05-05 22:01 | 40.67949 | -103.09886 | 27987 ft | 417 kts | 247° |
| 2026-05-05 22:01 | 40.66762 | -103.13378 | 27727 ft | 418 kts | 247° |
| 2026-05-05 22:02 | 40.65570 | -103.16884 | 27460 ft | 419 kts | 247° |
| 2026-05-05 22:02 | 40.64391 | -103.20345 | 27203 ft | 420 kts | 247° |
| 2026-05-05 22:02 | 40.63192 | -103.23859 | 26943 ft | 421 kts | 247° |
| 2026-05-05 22:02 | 40.61990 | -103.27381 | 26692 ft | 422 kts | 247° |
| 2026-05-05 22:03 | 40.60782 | -103.30913 | 26433 ft | 423 kts | 247° |
| 2026-05-05 22:03 | 40.59573 | -103.34445 | 26188 ft | 424 kts | 247° |
| 2026-05-05 22:03 | 40.58356 | -103.37997 | 26065 ft | 427 kts | 247° |
| 2026-05-05 22:03 | 40.57140 | -103.41539 | 26014 ft | 420 kts | 247° |
| 2026-05-05 22:04 | 40.55950 | -103.45000 | 26004 ft | 412 kts | 247° |
| 2026-05-05 22:04 | 40.54771 | -103.48427 | 26017 ft | 410 kts | 247° |
| 2026-05-05 22:04 | 40.53607 | -103.51807 | 26018 ft | 412 kts | 247° |
| 2026-05-05 22:04 | 40.52421 | -103.55250 | 25666 ft | 416 kts | 247° |
| 2026-05-05 22:05 | 40.51235 | -103.58684 | 25135 ft | 409 kts | 247° |
| 2026-05-05 22:05 | 40.50065 | -103.62068 | 24562 ft | 404 kts | 247° |
| 2026-05-05 22:05 | 40.48911 | -103.65405 | 23965 ft | 399 kts | 248° |
| 2026-05-05 22:05 | 40.47767 | -103.68709 | 23307 ft | 395 kts | 248° |
| 2026-05-05 22:06 | 40.46631 | -103.71983 | 22627 ft | 391 kts | 247° |
| 2026-05-05 22:06 | 40.45506 | -103.75210 | 22002 ft | 386 kts | 246° |
| 2026-05-05 22:06 | 40.44221 | -103.78262 | 21688 ft | 377 kts | 242° |
| 2026-05-05 22:06 | 40.42868 | -103.81193 | 21348 ft | 376 kts | 241° |
| 2026-05-05 22:07 | 40.41487 | -103.84165 | 21023 ft | 385 kts | 241° |
| 2026-05-05 22:07 | 40.40092 | -103.87173 | 20687 ft | 383 kts | 241° |
| 2026-05-05 22:07 | 40.38729 | -103.90117 | 20350 ft | 373 kts | 242° |
| 2026-05-05 22:07 | 40.37404 | -103.92988 | 20029 ft | 363 kts | 242° |
| 2026-05-05 22:08 | 40.36133 | -103.95748 | 19733 ft | 353 kts | 242° |
| 2026-05-05 22:08 | 40.34876 | -103.98479 | 19428 ft | 345 kts | 242° |
| 2026-05-05 22:08 | 40.33648 | -104.01143 | 19152 ft | 337 kts | 242° |
| 2026-05-05 22:08 | 40.32446 | -104.03746 | 18857 ft | 330 kts | 242° |
| 2026-05-05 22:09 | 40.31125 | -104.06173 | 18562 ft | 328 kts | 230° |
| 2026-05-05 22:09 | 40.29416 | -104.08138 | 18299 ft | 325 kts | 224° |
| 2026-05-05 22:09 | 40.27669 | -104.09976 | 17990 ft | 319 kts | 224° |
| 2026-05-05 22:09 | 40.25948 | -104.11772 | 17686 ft | 313 kts | 224° |
| 2026-05-05 22:10 | 40.24262 | -104.13544 | 17411 ft | 307 kts | 224° |
| 2026-05-05 22:10 | 40.22613 | -104.15290 | 17131 ft | 302 kts | 224° |
| 2026-05-05 22:10 | 40.20998 | -104.17010 | 16878 ft | 296 kts | 224° |
| 2026-05-05 22:10 | 40.19415 | -104.18701 | 16628 ft | 292 kts | 224° |
| 2026-05-05 22:11 | 40.17870 | -104.20352 | 16374 ft | 289 kts | 223° |
| 2026-05-05 22:11 | 40.16296 | -104.22032 | 16117 ft | 287 kts | 223° |
| 2026-05-05 22:11 | 40.14771 | -104.23659 | 15886 ft | 286 kts | 223° |
| 2026-05-05 22:11 | 40.13232 | -104.25300 | 15638 ft | 285 kts | 223° |
| 2026-05-05 22:12 | 40.11693 | -104.26938 | 15391 ft | 284 kts | 223° |
| 2026-05-05 22:12 | 40.10163 | -104.28566 | 15151 ft | 284 kts | 223° |
| 2026-05-05 22:12 | 40.08630 | -104.30197 | 14902 ft | 284 kts | 222° |
| 2026-05-05 22:12 | 40.07095 | -104.31828 | 14661 ft | 284 kts | 222° |
| 2026-05-05 22:13 | 40.05560 | -104.33459 | 14406 ft | 285 kts | 222° |
| 2026-05-05 22:13 | 40.04016 | -104.35099 | 14159 ft | 285 kts | 222° |
| 2026-05-05 22:13 | 40.02495 | -104.36714 | 13919 ft | 285 kts | 221° |
| 2026-05-05 22:13 | 40.00955 | -104.38347 | 13656 ft | 285 kts | 221° |
| 2026-05-05 22:14 | 39.99411 | -104.39984 | 13382 ft | 285 kts | 221° |
| 2026-05-05 22:14 | 39.97870 | -104.41615 | 13126 ft | 285 kts | 221° |
| 2026-05-05 22:14 | 39.96334 | -104.43241 | 12881 ft | 284 kts | 221° |
| 2026-05-05 22:14 | 39.94803 | -104.44865 | 12663 ft | 283 kts | 221° |
| 2026-05-05 22:15 | 39.93276 | -104.46485 | 12456 ft | 281 kts | 221° |
| 2026-05-05 22:15 | 39.91761 | -104.48090 | 12252 ft | 280 kts | 220° |
| 2026-05-05 22:15 | 39.90143 | -104.49465 | 12028 ft | 278 kts | 204° |
| 2026-05-05 22:15 | 39.88278 | -104.50017 | 11836 ft | 275 kts | 185° |
| 2026-05-05 22:16 | 39.86376 | -104.50043 | 11652 ft | 271 kts | 182° |
| 2026-05-05 22:16 | 39.84532 | -104.50044 | 11449 ft | 266 kts | 182° |
| 2026-05-05 22:16 | 39.82698 | -104.50058 | 11254 ft | 261 kts | 182° |
| 2026-05-05 22:16 | 39.80916 | -104.50080 | 11071 ft | 250 kts | 182° |
| 2026-05-05 22:17 | 39.79215 | -104.50131 | 10973 ft | 239 kts | 186° |
| 2026-05-05 22:17 | 39.77593 | -104.50408 | 10981 ft | 234 kts | 190° |
| 2026-05-05 22:17 | 39.75990 | -104.50758 | 10986 ft | 234 kts | 191° |
| 2026-05-05 22:17 | 39.74378 | -104.51118 | 10985 ft | 235 kts | 191° |
| 2026-05-05 22:18 | 39.72769 | -104.51474 | 10974 ft | 233 kts | 191° |
| 2026-05-05 22:18 | 39.71172 | -104.51821 | 10969 ft | 232 kts | 190° |
| 2026-05-05 22:18 | 39.69582 | -104.52163 | 10974 ft | 231 kts | 190° |
| 2026-05-05 22:18 | 39.68004 | -104.52500 | 10968 ft | 229 kts | 190° |
| 2026-05-05 22:19 | 39.66433 | -104.52833 | 10959 ft | 229 kts | 190° |
| 2026-05-05 22:19 | 39.64862 | -104.53164 | 10964 ft | 229 kts | 190° |
| 2026-05-05 22:19 | 39.63286 | -104.53495 | 10962 ft | 229 kts | 189° |
| 2026-05-05 22:19 | 39.61708 | -104.53825 | 10957 ft | 230 kts | 190° |
| 2026-05-05 22:20 | 39.60161 | -104.54148 | 10972 ft | 225 kts | 190° |
| 2026-05-05 22:20 | 39.58637 | -104.54466 | 10946 ft | 219 kts | 189° |
| 2026-05-05 22:20 | 39.57139 | -104.54778 | 10926 ft | 217 kts | 189° |
| 2026-05-05 22:20 | 39.55667 | -104.55084 | 10929 ft | 212 kts | 189° |
| 2026-05-05 22:21 | 39.54214 | -104.55386 | 10923 ft | 212 kts | 189° |
| 2026-05-05 22:21 | 39.52755 | -104.55690 | 10928 ft | 213 kts | 189° |
| 2026-05-05 22:21 | 39.51324 | -104.56132 | 10915 ft | 211 kts | 209° |
| 2026-05-05 22:21 | 39.50232 | -104.57377 | 10950 ft | 213 kts | 223° |
| 2026-05-05 22:22 | 39.49161 | -104.58718 | 10939 ft | 213 kts | 222° |
| 2026-05-05 22:22 | 39.48086 | -104.60026 | 10931 ft | 210 kts | 222° |
| 2026-05-05 22:22 | 39.47108 | -104.61401 | 10911 ft | 207 kts | 240° |
| 2026-05-05 22:22 | 39.46780 | -104.63185 | 10930 ft | 209 kts | 275° |
| 2026-05-05 22:23 | 39.47430 | -104.64864 | 10954 ft | 219 kts | 317° |
| 2026-05-05 22:23 | 39.48843 | -104.65654 | 10971 ft | 228 kts | 348° |
| 2026-05-05 22:23 | 39.50429 | -104.65980 | 10949 ft | 232 kts | 349° |
| 2026-05-05 22:23 | 39.52025 | -104.66248 | 10943 ft | 230 kts | 355° |
| 2026-05-05 22:24 | 39.53625 | -104.66332 | 10934 ft | 231 kts | 356° |
| 2026-05-05 22:24 | 39.55250 | -104.66380 | 10607 ft | 240 kts | 359° |
| 2026-05-05 22:24 | 39.56903 | -104.66373 | 10300 ft | 233 kts | 0° |
| 2026-05-05 22:24 | 39.58494 | -104.66352 | 9976 ft | 225 kts | 1° |
| 2026-05-05 22:25 | 39.60033 | -104.66331 | 9688 ft | 216 kts | 2° |
| 2026-05-05 22:25 | 39.61501 | -104.66313 | 9371 ft | 206 kts | 1° |
| 2026-05-05 22:25 | 39.62913 | -104.66296 | 9106 ft | 200 kts | 2° |
| 2026-05-05 22:25 | 39.64289 | -104.66279 | 8850 ft | 195 kts | 1° |
| 2026-05-05 22:26 | 39.65635 | -104.66263 | 8615 ft | 193 kts | 1° |
| 2026-05-05 22:26 | 39.66974 | -104.66246 | 8404 ft | 190 kts | 2° |
| 2026-05-05 22:26 | 39.68246 | -104.66231 | 8260 ft | 178 kts | 2° |
| 2026-05-05 22:26 | 39.69473 | -104.66217 | 7999 ft | 169 kts | 2° |
| 2026-05-05 22:27 | 39.70599 | -104.66203 | 7781 ft | 159 kts | 2° |
| 2026-05-05 22:27 | 39.71672 | -104.66190 | 7574 ft | 150 kts | 2° |
| 2026-05-05 22:27 | 39.72712 | -104.66177 | 7396 ft | 150 kts | 2° |
| 2026-05-05 22:27 | 39.73759 | -104.66164 | 7201 ft | 152 kts | 2° |
| 2026-05-05 22:28 | 39.74807 | -104.66151 | 7002 ft | 149 kts | 1° |
| 2026-05-05 22:28 | 39.75840 | -104.66139 | 6793 ft | 146 kts | 2° |
| 2026-05-05 22:28 | 39.76843 | -104.66127 | 6622 ft | 142 kts | 2° |
| 2026-05-05 22:28 | 39.77500 | -104.66118 | 6503 ft | 143 kts | 1° |
| 2026-05-05 22:29 | 39.78509 | -104.66107 | 6296 ft | 145 kts | 2° |
| 2026-05-05 22:29 | 39.79511 | -104.66095 | 6093 ft | 142 kts | 4° |
| 2026-05-05 22:29 | 39.80817 | -104.66079 | 5856 ft | 142 kts | 4° |
| 2026-05-05 22:29 | 39.81485 | -104.66070 | 5726 ft | 139 kts | 3° |
| 2026-05-05 22:30 | 39.82446 | -104.66053 | 5487 ft | 140 kts | 5° |
| 2026-05-05 22:30 | 39.83369 | -104.66037 | 5377 ft | 123 kts | 1° |
| 2026-05-05 22:30 | 39.84127 | -104.66034 | 5364 ft | 90 kts | 2° |
| 2026-05-05 22:30 | 39.84612 | -104.66032 | 5363 ft | 49 kts | 1° |
| 2026-05-05 22:31 | 39.84853 | -104.66027 | 5363 ft | 29 kts | 0° |
| 2026-05-05 22:31 | 39.85051 | -104.66031 | 5361 ft | 28 kts | 352° |
| 2026-05-05 22:31 | 39.85227 | -104.66106 | 5365 ft | 26 kts | 333° |
| 2026-05-05 22:31 | 39.85309 | -104.66169 | 5363 ft | 10 kts | 329° |
| 2026-05-05 22:32 | 39.85369 | -104.66210 | 5364 ft | 10 kts | 337° |
| 2026-05-05 22:32 | 39.85433 | -104.66233 | 5364 ft | 9 kts | 352° |
| 2026-05-05 22:32 | 39.85501 | -104.66235 | 5361 ft | 11 kts | 0° |
| 2026-05-05 22:32 | 39.85586 | -104.66234 | 5364 ft | 14 kts | 0° |
| 2026-05-05 22:33 | 39.85689 | -104.66233 | 5363 ft | 16 kts | 0° |
| 2026-05-05 22:33 | 39.85806 | -104.66231 | 5364 ft | 17 kts | 0° |
| 2026-05-05 22:33 | 39.85921 | -104.66231 | 5363 ft | 16 kts | 0° |
| 2026-05-05 22:33 | 39.86031 | -104.66230 | 5363 ft | 16 kts | 0° |
| 2026-05-05 22:34 | 39.86136 | -104.66228 | 5363 ft | 15 kts | 0° |
| 2026-05-05 22:34 | 39.86238 | -104.66227 | 5364 ft | 14 kts | 0° |
| 2026-05-05 22:34 | 39.86335 | -104.66226 | 5363 ft | 14 kts | 360° |
| 2026-05-05 22:34 | 39.86429 | -104.66225 | 5364 ft | 13 kts | 1° |
| 2026-05-05 22:35 | 39.86501 | -104.66273 | 5365 ft | 13 kts | 284° |
| 2026-05-05 22:35 | 39.86504 | -104.66387 | 5365 ft | 12 kts | 271° |
| 2026-05-05 22:35 | 39.86503 | -104.66498 | 5365 ft | 12 kts | 261° |
| 2026-05-05 22:35 | 39.86452 | -104.66572 | 5364 ft | 12 kts | 188° |
| 2026-05-05 22:36 | 39.86391 | -104.66573 | 5365 ft | 0 kts | 182° |
| 2026-05-05 22:36 | 39.86383 | -104.66589 | 5365 ft | 3 kts | 269° |
| 2026-05-05 22:36 | 39.86398 | -104.66656 | 5362 ft | 10 kts | 287° |
| 2026-05-05 22:37 | 39.86412 | -104.66756 | 5363 ft | 13 kts | 272° |
| 2026-05-05 22:37 | 39.86413 | -104.66869 | 5365 ft | 12 kts | 270° |
| 2026-05-05 22:37 | 39.86413 | -104.66982 | 5365 ft | 13 kts | 271° |
| 2026-05-05 22:37 | 39.86416 | -104.67098 | 5365 ft | 12 kts | 271° |
| 2026-05-05 22:38 | 39.86417 | -104.67187 | 5365 ft | 7 kts | 269° |
| 2026-05-05 22:38 | 39.86398 | -104.67243 | 5365 ft | 7 kts | 228° |
| 2026-05-05 22:38 | 39.86362 | -104.67255 | 5365 ft | 3 kts | 183° |
| 2026-05-05 22:38 | 39.86358 | -104.67255 | 5365 ft | 0 kts | 182° |